Matucana, Peru
Current Conditions -  °F | °C
As of 4:00 PM on Thursday 20 Nov 2014 (Local Time) from SPIM Reporting Station
Overcast Overcast  
Wind Chill: 21°   Ceiling: 3000
Heat Index: 21°   Visibility: 6mi
Dew Point: 17°   Wind: 8mph
Humidity: 78%   Direction: 180°S
Pressure: 29.91"   Gusts: NA
Location:  11.85°S, 76.4°W
Report Text: SPIM 202100Z 18007KT 150V220 9999 SCT014 OVC030 21/17 Q1013 NOSIG RMK PP000
Loading
Personal Weather Stations






























Interactive Weather Map New forecast layout! Learn more

10-Day Weather Forecast

Advertisements
Track Severe Weather on mobile